Flight Track Log - Related Links

Times and Time Zones

All times are in EDT time to prevent confusion due to time zone crossing. See the CPZ5718 flight status page for this flight to view local times or setup timezone preferences in your user account.

Time Position Orientation Groundspeed Altitude Reporting Facility
EDT Latitude Longitude Course Direction KTS MPH feet Rate Location/Type
Thu 06:51:17 AM 42.7694 -73.8089 281° West 159 183 1,100  Level Boston Center
Thu 06:52:24 AM 42.8231 -73.8469 332° Northwest 218 251 2,900 2,079 Climbing Boston Center
Thu 06:53:24 AM 42.8744 -73.9106 318° Northwest 272 313 5,500 2,933 Climbing Boston Center
Thu 06:53:54 AM 42.9011 -73.9422 319° Northwest 265 305 7,300 2,933 Climbing Boston Center
Thu 06:54:00 AM 42.8363 -74.3512 283° West  Level FlightAware Approximate
Thu 06:54:54 AM 42.9564 -74.0117 317° Northwest 293 337 9,900  Level Boston Center
Thu 06:55:00 AM 42.8597 -74.4916 283° West  Level FlightAware Approximate
Thu 06:55:54 AM 43.0114 -74.0956 312° West 288 331 11,600  Level Boston Center
Thu 06:56:00 AM 42.8932 -74.6217 281° West  Level FlightAware Approximate
Thu 06:56:54 AM 43.0453 -74.2072 293° West 309 356 14,000  Level Boston Center
Thu 06:57:54 AM 43.0789 -74.3247 291° West 335 386 16,400 2,100 Climbing Boston Center
Thu 06:58:54 AM 43.1122 -74.4453 291° West 335 386 18,200 1,750 Climbing Boston Center
Thu 06:59:54 AM 43.1436 -74.5572 291° West 335 386 19,900 1,700 Climbing Boston Center
Thu 07:00:54 AM 43.1786 -74.6836 291° West 341 392 21,600 1,800 Climbing Boston Center
Thu 07:01:54 AM 43.2136 -74.8133 290° West 353 406 23,500 1,800 Climbing Boston Center
Thu 07:02:54 AM 43.2483 -74.9400 291° West 353 406 25,200 1,400 Climbing Boston Center
Thu 07:03:54 AM 43.2850 -75.0700 291° West 353 406 26,300 4,400 Climbing Boston Center
Thu 07:04:54 AM 43.3194 -75.1969 290° West 360 414 34,000 1,050 Climbing Boston Center
Thu 07:05:54 AM 43.3558 -75.3272 291° West 369 425 28,400 -2,150 Descending Boston Center
Thu 07:06:54 AM 43.3997 -75.4922 290° West 387 445 29,700 1,150 Climbing Boston Center
Thu 07:07:54 AM 43.4356 -75.6256 290° West 387 445 30,700 950 Climbing Boston Center
Thu 07:08:54 AM 43.4714 -75.7619 290° West 387 445 31,600 1,050 Climbing Boston Center
Thu 07:09:54 AM 43.5069 -75.8956 290° West 387 445 32,800 950 Climbing Boston Center
Thu 07:10:54 AM 43.5425 -76.0267 291° West 377 434 33,500 600 Climbing Boston Center
Thu 07:11:54 AM 43.5758 -76.1547 290° West 372 428 34,000 250 Climbing Boston Center
Thu 07:12:54 AM 43.6111 -76.2889 290° West 372 428 34,000  Level Boston Center
Thu 07:13:54 AM 43.6461 -76.4258 289° West 372 428 34,000  Level Boston Center
Thu 07:14:54 AM 43.6808 -76.5603 290° West 372 428 34,000  Level Boston Center
Thu 07:15:54 AM 43.7133 -76.6978 288° West 372 428 34,000  Level Boston Center
Thu 07:17:13 AM 43.7500 -76.8333 291° West 380 437 34,000  Level Toronto Center
Thu 07:18:13 AM 43.7833 -76.9833 287° West 380 437 34,000  Level Toronto Center
Thu 07:19:13 AM 43.8167 -77.1167 289° West 380 437 34,000  Level Toronto Center
Thu 07:20:13 AM 43.8500 -77.2500 289° West 380 437 34,000  Level Toronto Center
Thu 07:21:13 AM 43.9000 -77.4167 293° West 380 437 34,000  Level Toronto Center
Thu 07:22:13 AM 43.9167 -77.5500 280° West 380 437 34,000  Level Toronto Center
Thu 07:23:13 AM 43.9500 -77.6667 292° West 380 437 34,000  Level Toronto Center
Thu 07:24:13 AM 43.9833 -77.8333 286° West 380 437 34,000  Level Toronto Center
Thu 07:25:13 AM 44.0167 -77.9667 289° West 380 437 34,000  Level Toronto Center
Thu 07:26:13 AM 44.0500 -78.1000 289° West 380 437 34,000  Level Toronto Center
Thu 07:27:13 AM 44.0833 -78.2333 289° West 380 437 34,000  Level Toronto Center
Thu 07:28:13 AM 44.1167 -78.3833 287° West 380 437 34,000  Level Toronto Center
Thu 07:29:13 AM 44.1667 -78.5167 298° West 380 437 34,000  Level Toronto Center
Thu 07:30:13 AM 44.1833 -78.6500 280° West 380 437 34,000  Level Toronto Center
Thu 07:31:13 AM 44.2167 -78.8000 287° West 380 437 34,000  Level Toronto Center
Thu 07:32:13 AM 44.2500 -78.9333 289° West 380 437 34,000  Level Toronto Center
Thu 07:33:13 AM 44.2833 -79.0667 289° West 380 437 34,000  Level Toronto Center
Thu 07:34:13 AM 44.3167 -79.2167 287° West 380 437 34,000  Level Toronto Center
Thu 07:35:13 AM 44.3167 -79.3833 270° West 390 449 34,000  Level Toronto Center
Thu 07:36:13 AM 44.3333 -79.5167 280° West 390 449 34,000  Level Toronto Center
Thu 07:37:13 AM 44.3500 -79.6833 278° West 390 449 34,000  Level Toronto Center
Thu 07:38:13 AM 44.3500 -79.8167 270° West 390 449 34,000  Level Toronto Center
Thu 07:39:13 AM 44.3667 -79.9833 278° West 390 449 34,000  Level Toronto Center
Thu 07:40:13 AM 44.3667 -80.1500 270° West 390 449 34,000  Level Toronto Center
Thu 07:41:13 AM 44.3833 -80.2833 280° West 400 460 34,000  Level Toronto Center
Thu 07:42:13 AM 44.3833 -80.4500 270° West 400 460 34,000  Level Toronto Center
Thu 07:43:13 AM 44.4000 -80.5833 280° West 400 460 34,000  Level Toronto Center
Thu 07:44:13 AM 44.4000 -80.7500 270° West 400 460 34,000  Level Toronto Center
Thu 07:45:13 AM 44.4000 -80.9167 270° West 400 460 34,000  Level Toronto Center
Thu 07:46:13 AM 44.4167 -81.0833 278° West 400 460 34,000  Level Toronto Center
Thu 07:47:13 AM 44.4167 -81.2167 270° West 400 460 34,000  Level Toronto Center
Thu 07:48:13 AM 44.4333 -81.3833 278° West 400 460 34,000  Level Toronto Center
Thu 07:49:13 AM 44.4333 -81.5167 270° West 400 460 34,000  Level Toronto Center
Thu 07:50:13 AM 44.4500 -81.6833 278° West 400 460 34,000  Level Toronto Center
Thu 07:51:13 AM 44.4500 -81.8500 270° West 400 460 34,000  Level Toronto Center
Thu 07:52:13 AM 44.4500 -82.0000 270° West 410 472 34,000  Level Toronto Center
Thu 07:53:13 AM 44.4667 -82.1500 279° West 410 472 34,000  Level Toronto Center
Thu 07:54:13 AM 44.4667 -82.3167 270° West 410 472 34,000  Level Toronto Center
Thu 07:54:46 AM 44.4828 -82.4156 283° West 407 468 34,000  Level Minneapolis Center
Thu 07:55:47 AM 44.4881 -82.5739 273° West 408 470 34,000  Level Minneapolis Center
Thu 07:56:49 AM 44.4950 -82.7336 274° West 410 472 34,000  Level Minneapolis Center
Thu 07:57:50 AM 44.4997 -82.8917 272° West 409 471 34,000  Level Minneapolis Center
Thu 07:58:52 AM 44.5053 -83.0514 273° West 412 474 34,000  Level Minneapolis Center
Thu 07:59:53 AM 44.5100 -83.2108 272° West 410 472 34,000  Level Minneapolis Center
Thu 08:00:55 AM 44.5158 -83.4014 273° West 410 472 34,000  Level Minneapolis Center
Thu 08:01:57 AM 44.5208 -83.5625 273° West 413 475 34,000  Level Minneapolis Center
Thu 08:02:58 AM 44.5261 -83.7242 273° West 415 478 34,000  Level Minneapolis Center
Thu 08:04:00 AM 44.5289 -83.8836 271° West 412 474 34,000  Level Minneapolis Center
Thu 08:05:01 AM 44.5333 -84.0456 272° West 415 478 34,000  Level Minneapolis Center
Thu 08:06:03 AM 44.5378 -84.2069 272° West 417 480 34,000  Level Minneapolis Center
Thu 08:07:04 AM 44.5408 -84.3683 272° West 415 478 34,000  Level Minneapolis Center
Thu 08:08:06 AM 44.5442 -84.5325 272° West 420 483 34,000  Level Minneapolis Center
Thu 08:09:07 AM 44.5481 -84.7275 272° West 418 481 34,000  Level Minneapolis Center
Thu 08:10:09 AM 44.5508 -84.8911 271° West 420 483 34,000  Level Minneapolis Center
Thu 08:11:11 AM 44.5536 -85.0561 271° West 422 486 34,000  Level Minneapolis Center
Thu 08:12:12 AM 44.5556 -85.2197 271° West 422 486 34,000  Level Minneapolis Center
Thu 08:13:14 AM 44.5572 -85.3839 271° West 421 484 34,000  Level Minneapolis Center
Thu 08:14:15 AM 44.5597 -85.5503 271° West 424 488 34,000  Level Minneapolis Center
Thu 08:15:17 AM 44.5708 -85.7142 275° West 423 487 34,000  Level Minneapolis Center
Thu 08:16:19 AM 44.5833 -85.8789 276° West 422 486 34,000  Level Minneapolis Center
Thu 08:17:20 AM 44.5964 -86.0475 276° West 428 493 34,000  Level Minneapolis Center
Thu 08:18:22 AM 44.6100 -86.2161 277° West 428 493 34,000  Level Minneapolis Center
Thu 08:19:24 AM 44.6258 -86.4172 276° West 428 493 34,000  Level Minneapolis Center
Thu 08:20:26 AM 44.6386 -86.5828 276° West 427 491 34,000  Level Minneapolis Center
Thu 08:21:27 AM 44.6506 -86.7500 276° West 428 493 34,000  Level Minneapolis Center
Thu 08:22:29 AM 44.6639 -86.9158 277° West 429 494 34,000  Level Minneapolis Center
Thu 08:23:31 AM 44.6756 -87.0814 276° West 428 493 34,000  Level Minneapolis Center
Thu 08:24:32 AM 44.6861 -87.2469 275° West 426 490 34,000  Level Minneapolis Center
Thu 08:25:34 AM 44.6983 -87.4111 276° West 425 489 34,000  Level Minneapolis Center
Thu 08:26:36 AM 44.7086 -87.5764 275° West 425 489 34,000  Level Minneapolis Center
Thu 08:27:38 AM 44.7222 -87.7744 276° West 425 489 34,000  Level Minneapolis Center
Thu 08:28:39 AM 44.7306 -87.9286 274° West 424 488 34,000  Level Minneapolis Center
Thu 08:29:41 AM 44.7406 -88.0919 275° West 422 486 34,000  Level Minneapolis Center
Thu 08:30:43 AM 44.7536 -88.2875 275° West 430 495 34,000  Level Minneapolis Center
Thu 08:31:45 AM 44.7633 -88.4528 275° West 428 493 34,000  Level Minneapolis Center
Thu 08:32:47 AM 44.7733 -88.6183 275° West 427 491 34,000  Level Minneapolis Center
Thu 08:33:48 AM 44.7808 -88.7853 274° West 428 493 34,000  Level Minneapolis Center
Thu 08:34:50 AM 44.7903 -88.9531 275° West 430 495 34,000  Level Minneapolis Center
Thu 08:35:52 AM 44.7992 -89.1219 274° West 433 498 34,000  Level Minneapolis Center
Thu 08:36:54 AM 44.8089 -89.3186 274° West 434 499 34,000  Level Minneapolis Center
Thu 08:37:55 AM 44.8178 -89.4869 274° West 433 498 34,000  Level Minneapolis Center
Thu 08:38:57 AM 44.8256 -89.6569 274° West 435 501 34,000 -242 Level Minneapolis Center
Thu 08:39:59 AM 44.8328 -89.8097 274° West 436 502 33,500 -780 Descending Minneapolis Center
Thu 08:41:00 AM 44.8408 -89.9817 274° West 438 504 32,400 -732 Descending Minneapolis Center
Thu 08:42:02 AM 44.8525 -90.1850 275° West 434 499 32,000 -194 Descending Minneapolis Center
Thu 08:43:04 AM 44.8692 -90.3522 278° West 431 496 32,000 -290 Level Minneapolis Center
Thu 08:44:06 AM 44.8867 -90.5228 278° West 436 502 31,400 -1,073 Descending Minneapolis Center
Thu 08:45:07 AM 44.9039 -90.6908 278° West 434 499 29,800 -1,659 Descending Minneapolis Center
Thu 08:46:09 AM 44.9192 -90.8500 278° West 414 476 28,000 -1,790 Descending Minneapolis Center
Thu 08:47:11 AM 44.9344 -91.0117 278° West 404 465 26,100 -1,854 Descending Minneapolis Center
Thu 08:48:12 AM 44.9486 -91.1639 278° West 398 458 24,200 -1,756 Descending Minneapolis Center
Thu 08:49:14 AM 44.9611 -91.3117 277° West 387 445 22,500 -1,790 Descending Minneapolis Center
Thu 08:50:16 AM 44.9786 -91.4822 278° West 373 429 20,500 -1,805 Descending Minneapolis Center
Thu 08:51:17 AM 44.9892 -91.6186 276° West 359 413 18,800 -1,561 Descending Minneapolis Center
Thu 08:52:19 AM 45.0033 -91.7547 278° West 353 406 17,300 -1,500 Descending Minneapolis Center
Thu 08:53:21 AM 45.0156 -91.8878 277° West 345 397 15,700 -1,548 Descending Minneapolis Center
Thu 08:54:23 AM 45.0264 -92.0208 277° West 341 392 14,100 -1,561 Descending Minneapolis Center
Thu 08:55:24 AM 45.0378 -92.1519 277° West 338 389 12,500 -1,512 Descending Minneapolis Center
Thu 08:56:26 AM 45.0383 -92.3042 270° West 327 376 11,000 -726 Descending Minneapolis Center
Thu 08:57:28 AM 45.0206 -92.4275 259° West 321 369 11,000  Level Minneapolis Center
Thu 08:58:29 AM 45.0044 -92.5528 260° West 326 375 11,000  Level Minneapolis Center
Thu 08:59:31 AM 44.9872 -92.6778 259° West 326 375 11,000  Level Minneapolis Center
Thu 09:00:35 AM 44.9681 -92.8011 258° West 324 373 11,000 -286 Level Minneapolis Center
Thu 09:01:37 AM 44.9442 -92.9467 257° West 319 367 10,400 -927 Descending Minneapolis Center
Thu 09:02:38 AM 44.9272 -93.0544 258° West 286 329 9,100 -1,366 Descending Minneapolis Center
Thu 09:03:40 AM 44.9664 -93.1506 300° West 287 330 7,600 -1,452 Descending Minneapolis Center
Thu 09:04:42 AM 45.0108 -93.2425 304° West 287 330 6,100 -780 Descending Minneapolis Center
Thu 09:05:43 AM 45.0544 -93.3314 305° West 279 321 6,000 -341 Descending Minneapolis Center
Thu 09:06:45 AM 45.0931 -93.4122 304° West 248 285 5,400 -780 Descending Minneapolis Center
Thu 09:07:46 AM 45.0478 -93.4414 204° Southwest 197 227 4,400 -683 Descending Minneapolis Center
Thu 09:08:48 AM 45.0083 -93.4017 145° Southeast 176 203 4,000 -387 Descending Minneapolis Center

Login

Don't have an account? Register now (free) for customized features, flight alerts, and more!